Snö i Göteborg

(1/3) > >>

mgerner:
Mycket på gång i Göteborg nu under kvällen. Säve Airport hade många av sina ankomster flyttade till andra flygplatser, vilket resulterade i att många avgångar blev inställda.
På väg till Landvetter låg tre flygplan från Stockholm i holding över MOXAM samtidigt som Göteborg Control kämpade med att lösa allt på ett bra sätt.

Verkar bli bättre nu, dock 

Hagrido:
Quote

Mycket på gång i Göteborg nu under kvällen. Säve Airport hade många av sina ankomster flyttade till andra flygplatser, vilket resulterade i att många avgångar blev inställda.
På väg till Landvetter låg tre flygplan från Stockholm i holding över MOXAM samtidigt som Göteborg Control kämpade med att lösa allt på ett bra sätt.

Verkar bli bättre nu, dock 


Ja, lite lätt kaos har det allt varit. Så här såg METARN ut tidigare på Säve och Landvetter
ESGP 311650Z 07007KT 0700 R01/1700D R19/P2000N SN VV009 M08/M08 Q0995=
ESGG 311650Z 11011KT 1200 R03/P1500N R21/P1500N SN OVC003 M09/M11 Q0994 R21/71//95=

och TAF

ESGP 311430Z 3115/3124 10011KT 9000 -SG BKN012 PROB40 3115/3116 BKN009 TEMPO 3116/3124 1400 SN VV006=
ESGG 311130Z 3112/0112 12010KT 6000 -SN BKN014 TEMPO 3112/0112 1200 SN VV004=

Ryanairs ankomster till Säve från Frankfurt och Alicante valde att gå mot Landvetter och ankomsten från London gick till Skavsta istället.

thomashjelm:

SN diverterade till ESGJ och SAS till ESTA, bland annat.

/T

mgerner:
Quote

SAS till ESTA, bland annat.

/T


Japp, de låg och snurrade ett bra tag. Skulle vara intressant att se vad ett sådant beslut får för ekonomiska konsekvenser för bolaget.

thomashjelm:
Quote

Japp, de låg och snurrade ett bra tag. Skulle vara intressant att se vad ett sådant beslut får för ekonomiska konsekvenser för bolaget.


Väder ger inte jättestora konsekvenser direkt så länge man kan flyga tillbaka flygplanet till den planerade flygplatsen utan någon större fördröjning.

/T

Navigation

Up one level

Next page